createdAt,value
2019-03-13T00:02:30.203Z,4.17
2019-03-13T00:07:51.872Z,4.80
2019-03-13T00:13:13.279Z,4.20
2019-03-13T00:18:34.842Z,5.00
2019-03-13T00:23:55.791Z,6.03
2019-03-13T00:29:17.174Z,5.50
2019-03-13T00:34:38.279Z,4.53
2019-03-13T00:39:59.253Z,5.03
2019-03-13T00:45:20.212Z,4.33
2019-03-13T00:50:41.348Z,4.67
2019-03-13T00:56:02.383Z,5.07
2019-03-13T01:01:43.130Z,5.20
2019-03-13T01:07:07.015Z,5.00
2019-03-13T01:12:27.811Z,5.57
2019-03-13T01:17:48.862Z,4.23
2019-03-13T01:23:09.793Z,4.67
2019-03-13T01:28:31.190Z,4.60
2019-03-13T01:33:54.052Z,4.67
2019-03-13T01:39:15.214Z,5.00
2019-03-13T01:44:36.707Z,4.80
2019-03-13T01:49:58.282Z,4.57
2019-03-13T01:55:19.330Z,4.87
2019-03-13T02:00:40.490Z,5.10
2019-03-13T02:06:01.861Z,5.00
2019-03-13T02:11:22.786Z,4.70
2019-03-13T02:16:44.063Z,4.83
2019-03-13T02:22:05.380Z,4.93
2019-03-13T02:27:26.443Z,4.80
2019-03-13T02:32:47.628Z,5.50
2019-03-13T02:38:08.558Z,4.83
2019-03-13T02:43:29.908Z,5.10
2019-03-13T02:48:50.821Z,4.83
2019-03-13T02:54:12.286Z,6.83
2019-03-13T02:59:33.272Z,5.00
2019-03-13T03:04:55.972Z,4.93
2019-03-13T03:10:17.389Z,5.73
2019-03-13T03:15:38.722Z,5.23
2019-03-13T03:21:00.101Z,6.13
2019-03-13T03:26:21.150Z,6.10
2019-03-13T03:31:42.402Z,7.30
2019-03-13T03:37:03.922Z,6.40
2019-03-13T03:42:25.416Z,5.90
2019-03-13T03:47:46.541Z,6.23
2019-03-13T03:53:07.388Z,5.00
2019-03-13T03:58:29.791Z,5.83
2019-03-13T04:03:51.245Z,4.20
2019-03-13T04:09:12.557Z,5.20
2019-03-13T04:14:33.912Z,5.53
2019-03-13T04:19:54.833Z,5.87
2019-03-13T04:25:30.369Z,7.73
2019-03-13T04:30:51.338Z,11.37
2019-03-13T04:36:12.687Z,5.87
2019-03-13T04:41:33.629Z,6.83
2019-03-13T04:46:55.075Z,5.70
2019-03-13T04:52:16.282Z,6.70
2019-03-13T04:57:37.326Z,7.30
2019-03-13T05:02:58.437Z,6.83
2019-03-13T05:09:10.233Z,8.63
2019-03-13T05:14:32.861Z,4.23
2019-03-13T05:19:54.451Z,7.90
2019-03-13T05:25:15.669Z,8.70
2019-03-13T05:30:36.639Z,8.83
2019-03-13T05:35:57.955Z,11.20
2019-03-13T05:41:19.270Z,8.73
2019-03-13T05:46:40.488Z,8.43
2019-03-13T05:52:01.689Z,9.53
2019-03-13T05:57:22.563Z,10.88
2019-03-13T06:02:43.841Z,12.70
2019-03-13T06:08:05.091Z,8.90
2019-03-13T06:13:26.962Z,9.33
2019-03-13T06:18:48.112Z,10.03
2019-03-13T06:24:09.339Z,10.50
2019-03-13T06:29:31.919Z,10.80
2019-03-13T06:34:53.323Z,18.67
2019-03-13T06:40:14.652Z,12.77
2019-03-13T06:45:36.003Z,16.40
2019-03-13T06:50:57.356Z,13.43
2019-03-13T06:56:18.399Z,12.43
2019-03-13T07:02:04.878Z,14.20
2019-03-13T07:07:39.645Z,11.23
2019-03-13T07:13:20.106Z,12.40
2019-03-13T07:18:55.836Z,14.10
2019-03-13T07:24:42.552Z,13.93
2019-03-13T07:30:22.322Z,11.80
2019-03-13T07:36:17.913Z,11.30
2019-03-13T07:41:57.462Z,11.20
2019-03-13T07:47:41.009Z,15.50
2019-03-13T07:53:12.443Z,12.27
2019-03-13T07:58:55.872Z,10.80
2019-03-13T08:04:45.490Z,10.00
2019-03-13T08:10:26.880Z,11.87
2019-03-13T08:16:10.266Z,10.90
2019-03-13T08:21:56.805Z,9.85
2019-03-13T08:27:55.684Z,8.55
2019-03-13T08:33:27.350Z,9.90
2019-03-13T08:39:10.946Z,9.37
2019-03-13T08:44:50.209Z,8.33
2019-03-13T08:50:30.870Z,7.80
2019-03-13T08:55:59.245Z,8.28
2019-03-13T09:01:33.204Z,8.48
2019-03-13T09:07:23.014Z,8.30
2019-03-13T09:13:01.779Z,8.10
2019-03-13T09:18:51.295Z,8.20
2019-03-13T09:24:21.029Z,6.92
2019-03-13T09:30:07.523Z,7.20
2019-03-13T09:35:53.978Z,8.05
2019-03-13T09:41:23.964Z,7.50
2019-03-13T09:46:53.329Z,7.28
2019-03-13T09:52:43.197Z,7.15
2019-03-13T09:58:22.082Z,6.90
2019-03-13T10:04:02.784Z,5.97
2019-03-13T10:09:36.988Z,5.85
2019-03-13T10:15:03.382Z,8.05
2019-03-13T10:20:42.652Z,5.65
2019-03-13T10:26:29.543Z,6.40
2019-03-13T10:31:59.774Z,6.53
2019-03-13T10:37:38.821Z,6.58
2019-03-13T10:43:25.396Z,6.83
2019-03-13T10:49:04.738Z,5.65
2019-03-13T10:54:54.342Z,7.25
2019-03-13T11:00:38.226Z,6.72
2019-03-13T11:06:27.638Z,6.35
2019-03-13T11:11:55.093Z,6.87
2019-03-13T11:17:41.993Z,5.70
2019-03-13T11:23:12.814Z,5.70
2019-03-13T11:28:59.383Z,16.87
2019-03-13T11:34:42.872Z,19.07
2019-03-13T11:40:30.321Z,7.50
2019-03-13T11:46:14.160Z,5.10
2019-03-13T11:52:03.928Z,4.62
2019-03-13T11:57:50.657Z,6.95
2019-03-13T12:03:27.498Z,7.37
2019-03-13T12:09:23.155Z,6.60
2019-03-13T12:15:06.629Z,5.90
2019-03-13T12:20:45.923Z,8.48
2019-03-13T12:26:35.485Z,4.78
2019-03-13T12:32:15.466Z,6.40
2019-03-13T12:37:58.978Z,5.80
2019-03-13T12:43:29.075Z,5.90
2019-03-13T12:49:08.158Z,6.92
2019-03-13T12:54:36.741Z,8.70
2019-03-13T13:00:05.735Z,7.20
2019-03-13T13:05:42.435Z,9.93
2019-03-13T13:11:21.164Z,7.40
2019-03-13T13:16:59.183Z,7.72
2019-03-13T13:22:20.141Z,14.38
2019-03-13T13:27:41.901Z,65.60
2019-03-13T13:33:03.164Z,78.80
2019-03-13T13:38:24.223Z,33.90
2019-03-13T13:43:45.520Z,113.32
2019-03-13T13:49:06.580Z,63.28
2019-03-13T13:54:27.480Z,20.88
2019-03-13T13:59:49.213Z,7.58
2019-03-13T14:05:10.855Z,8.23
2019-03-13T14:10:31.932Z,8.85
2019-03-13T14:15:53.267Z,8.40
2019-03-13T14:21:14.367Z,8.45
2019-03-13T14:26:44.047Z,11.80
2019-03-13T14:32:05.531Z,8.40
2019-03-13T14:37:26.444Z,19.15
2019-03-13T14:42:48.809Z,11.45
2019-03-13T14:48:10.223Z,9.08
2019-03-13T14:53:31.311Z,39.55
2019-03-13T14:58:52.642Z,39.78
2019-03-13T15:04:13.833Z,49.73
2019-03-13T15:09:34.812Z,31.68
2019-03-13T15:14:55.820Z,17.57
2019-03-13T15:20:17.059Z,19.50
2019-03-13T15:25:38.068Z,18.87
2019-03-13T15:30:59.350Z,19.57
2019-03-13T15:36:20.800Z,14.65
2019-03-13T15:41:42.306Z,14.40
2019-03-13T15:47:03.719Z,16.55
2019-03-13T15:52:26.363Z,17.15
2019-03-13T15:57:47.760Z,22.27
2019-03-13T16:03:08.967Z,25.00
2019-03-13T16:08:30.267Z,21.68
2019-03-13T16:13:51.614Z,21.30
2019-03-13T16:19:14.305Z,20.45
2019-03-13T16:24:35.636Z,20.70
2019-03-13T16:29:57.111Z,15.78
2019-03-13T16:35:18.256Z,21.30
2019-03-13T16:40:39.764Z,16.17
2019-03-13T16:46:01.283Z,23.70
2019-03-13T16:51:22.684Z,16.57
2019-03-13T16:56:46.478Z,17.57
2019-03-13T17:02:08.052Z,18.37
2019-03-13T17:07:40.618Z,14.47
2019-03-13T17:13:05.156Z,14.55
2019-03-13T17:18:25.524Z,20.27
2019-03-13T17:23:46.778Z,18.23
2019-03-13T17:29:08.174Z,20.37
2019-03-13T17:34:30.351Z,16.20
2019-03-13T17:39:51.802Z,18.80
2019-03-13T17:45:15.412Z,16.07
2019-03-13T17:50:36.576Z,15.07
2019-03-13T17:55:57.631Z,18.13
2019-03-13T18:01:19.743Z,41.27
2019-03-13T18:06:40.567Z,37.90
2019-03-13T18:12:02.153Z,33.00
2019-03-13T18:17:23.122Z,28.63
2019-03-13T18:22:44.922Z,40.13
2019-03-13T18:28:05.967Z,25.87
2019-03-13T18:33:27.400Z,20.30
2019-03-13T18:38:48.223Z,24.80
2019-03-13T18:44:09.457Z,19.23
2019-03-13T18:49:30.449Z,24.67
2019-03-13T18:54:55.992Z,22.50
2019-03-13T19:00:22.553Z,20.30
2019-03-13T19:05:43.585Z,21.93
2019-03-13T19:11:05.521Z,26.83
2019-03-13T19:16:26.682Z,18.00
2019-03-13T19:21:48.004Z,17.73
2019-03-13T19:27:09.605Z,19.53
2019-03-13T19:32:30.902Z,17.80
2019-03-13T19:37:52.708Z,19.67
2019-03-13T19:43:14.026Z,19.30
2019-03-13T19:48:35.439Z,15.70
2019-03-13T19:53:56.861Z,20.40
2019-03-13T19:59:17.787Z,17.00
2019-03-13T20:04:47.381Z,17.33
2019-03-13T20:10:02.252Z,20.23
2019-03-13T20:15:24.092Z,25.23
2019-03-13T20:20:45.402Z,24.97
2019-03-13T20:26:06.567Z,19.33
2019-03-13T20:31:27.377Z,18.30
2019-03-13T20:36:49.100Z,25.97
2019-03-13T20:42:13.221Z,28.20
2019-03-13T20:47:34.775Z,19.97
2019-03-13T20:52:56.027Z,19.43
2019-03-13T20:58:17.245Z,18.33
2019-03-13T21:03:38.420Z,16.57
2019-03-13T21:08:59.540Z,15.97
2019-03-13T21:14:22.244Z,17.57
2019-03-13T21:19:43.153Z,16.00
2019-03-13T21:25:05.141Z,13.57
2019-03-13T21:30:26.750Z,13.83
2019-03-13T21:35:48.081Z,14.37
2019-03-13T21:41:09.660Z,16.23
2019-03-13T21:46:31.208Z,14.60
2019-03-13T21:51:52.447Z,15.43
2019-03-13T21:57:13.868Z,14.70
2019-03-13T22:02:36.532Z,15.10
2019-03-13T22:07:57.867Z,14.17
2019-03-13T22:13:18.837Z,14.43
2019-03-13T22:18:40.162Z,14.77
2019-03-13T22:24:01.470Z,14.10
2019-03-13T22:29:22.972Z,15.80
2019-03-13T22:34:43.900Z,15.33
2019-03-13T22:40:05.855Z,22.77
2019-03-13T22:45:26.624Z,27.43
2019-03-13T22:50:47.855Z,33.60
2019-03-13T22:56:09.440Z,32.37
2019-03-13T23:01:30.501Z,33.67
2019-03-13T23:06:51.755Z,26.60
2019-03-13T23:12:12.634Z,21.50
2019-03-13T23:17:33.786Z,16.17
2019-03-13T23:22:54.838Z,14.13
2019-03-13T23:28:16.754Z,13.53
2019-03-13T23:33:38.147Z,13.50
2019-03-13T23:38:59.378Z,13.83
2019-03-13T23:44:20.693Z,13.40
2019-03-13T23:49:41.833Z,17.50
2019-03-13T23:55:03.302Z,17.60
